createdAt,value
2022-10-06T00:00:13.939Z,90.67
2022-10-06T00:01:15.115Z,90.66
2022-10-06T00:02:13.180Z,91.13
2022-10-06T00:03:09.852Z,91.02
2022-10-06T00:04:06.414Z,91.05
2022-10-06T00:05:03.650Z,91.12
2022-10-06T00:06:02.154Z,91.24
2022-10-06T00:06:58.710Z,90.96
2022-10-06T00:07:55.543Z,91.07
2022-10-06T00:08:52.108Z,91.37
2022-10-06T00:09:48.657Z,91.31
2022-10-06T00:10:45.258Z,91.34
2022-10-06T00:11:41.852Z,91.69
2022-10-06T00:12:51.059Z,91.97
2022-10-06T00:13:47.680Z,92.07
2022-10-06T00:14:44.269Z,91.87
2022-10-06T00:15:40.900Z,91.87
2022-10-06T00:16:37.512Z,91.79
2022-10-06T00:17:34.910Z,91.80
2022-10-06T00:18:31.920Z,92.01
2022-10-06T00:19:28.805Z,91.99
2022-10-06T00:20:26.694Z,91.70
2022-10-06T00:21:23.260Z,91.85
2022-10-06T00:22:19.866Z,91.38
2022-10-06T00:23:18.111Z,91.40
2022-10-06T00:24:14.711Z,91.81
2022-10-06T00:25:13.272Z,91.76
2022-10-06T00:26:16.880Z,91.58
2022-10-06T00:27:13.929Z,91.99
2022-10-06T00:28:10.544Z,92.33
2022-10-06T00:29:07.197Z,92.38
2022-10-06T00:30:04.619Z,92.71
2022-10-06T00:31:02.997Z,92.51
2022-10-06T00:31:59.680Z,92.60
2022-10-06T00:32:58.777Z,92.66
2022-10-06T00:33:55.349Z,92.94
2022-10-06T00:34:53.749Z,92.60
2022-10-06T00:35:57.978Z,92.77
2022-10-06T00:36:54.580Z,92.50
2022-10-06T00:37:51.513Z,92.69
2022-10-06T00:38:48.177Z,92.36
2022-10-06T00:39:44.754Z,92.64
2022-10-06T00:40:46.503Z,92.15
2022-10-06T00:41:43.828Z,92.18
2022-10-06T00:42:50.807Z,92.08
2022-10-06T00:43:56.972Z,92.63
2022-10-06T00:44:54.714Z,92.47
2022-10-06T00:45:51.449Z,92.35
2022-10-06T00:46:50.964Z,92.61
2022-10-06T00:47:48.213Z,92.35
2022-10-06T00:48:49.478Z,92.70
2022-10-06T00:49:46.617Z,92.42
2022-10-06T00:50:43.794Z,92.56
2022-10-06T00:51:46.190Z,92.21
2022-10-06T00:52:43.211Z,91.94
2022-10-06T00:53:40.917Z,92.12
2022-10-06T00:54:38.791Z,92.63
2022-10-06T00:55:35.342Z,92.31
2022-10-06T00:56:32.130Z,92.53
2022-10-06T00:57:28.753Z,92.23
2022-10-06T00:58:25.874Z,92.11
2022-10-06T00:59:22.677Z,92.34
2022-10-06T01:00:19.939Z,92.40
2022-10-06T01:01:17.101Z,92.33
2022-10-06T01:02:21.964Z,92.12
2022-10-06T01:03:24.304Z,92.03
2022-10-06T01:04:22.888Z,92.16
2022-10-06T01:05:44.080Z,92.17
2022-10-06T01:06:48.092Z,92.07
2022-10-06T01:07:44.835Z,92.24
2022-10-06T01:08:41.770Z,91.85
2022-10-06T01:09:38.753Z,91.58
2022-10-06T01:10:35.373Z,92.08
2022-10-06T01:11:32.479Z,91.76
2022-10-06T01:12:31.206Z,92.33
2022-10-06T01:13:29.023Z,92.26
2022-10-06T01:14:26.317Z,92.71
2022-10-06T01:15:24.989Z,92.41
2022-10-06T01:16:26.921Z,92.99
2022-10-06T01:17:48.248Z,93.28
2022-10-06T01:18:47.895Z,93.19
2022-10-06T01:19:44.449Z,93.22
2022-10-06T01:20:51.641Z,93.19
2022-10-06T01:21:51.187Z,93.45
2022-10-06T01:22:55.575Z,93.45
2022-10-06T01:23:53.072Z,93.57
2022-10-06T01:24:52.614Z,93.78
2022-10-06T01:25:49.260Z,93.68
2022-10-06T01:26:50.310Z,93.96
2022-10-06T01:27:53.864Z,93.63
2022-10-06T01:28:51.324Z,93.91
2022-10-06T01:29:52.930Z,94.04
2022-10-06T01:30:54.371Z,93.49
2022-10-06T01:31:51.151Z,93.54
2022-10-06T01:32:47.867Z,93.71
2022-10-06T01:33:44.496Z,93.78
2022-10-06T01:34:41.053Z,93.89
2022-10-06T01:35:37.955Z,93.79
2022-10-06T01:36:34.506Z,93.91
2022-10-06T01:37:31.160Z,93.96
2022-10-06T01:38:28.278Z,93.59
2022-10-06T01:39:25.040Z,94.01
2022-10-06T01:40:21.611Z,93.74
2022-10-06T01:41:18.246Z,93.59
2022-10-06T01:42:14.809Z,93.34
2022-10-06T01:43:11.524Z,93.32
2022-10-06T01:44:08.129Z,93.17
2022-10-06T01:45:05.438Z,93.32
2022-10-06T01:46:02.032Z,93.28
2022-10-06T01:46:58.615Z,93.11
2022-10-06T01:47:55.240Z,93.67
2022-10-06T01:48:51.853Z,93.77
2022-10-06T01:49:48.446Z,93.74
2022-10-06T01:50:45.007Z,93.98
2022-10-06T01:51:41.736Z,94.10
2022-10-06T01:52:38.288Z,94.43
2022-10-06T01:53:34.939Z,94.60
2022-10-06T01:54:31.599Z,94.21
2022-10-06T01:55:28.256Z,94.25
2022-10-06T01:56:25.013Z,93.82
2022-10-06T01:57:21.707Z,93.80
2022-10-06T01:58:18.709Z,93.44
2022-10-06T01:59:15.448Z,93.45
2022-10-06T02:00:12.650Z,92.99
2022-10-06T02:01:09.840Z,93.16
2022-10-06T02:02:06.597Z,93.46
2022-10-06T02:03:03.493Z,93.61
2022-10-06T02:04:00.193Z,93.41
2022-10-06T02:04:56.819Z,93.59
2022-10-06T02:05:56.695Z,93.73
2022-10-06T02:06:55.508Z,94.20
2022-10-06T02:07:52.054Z,94.19
2022-10-06T02:08:48.777Z,94.32
2022-10-06T02:09:45.388Z,94.26
2022-10-06T02:10:42.741Z,94.17
2022-10-06T02:11:39.290Z,94.57
2022-10-06T02:12:35.930Z,94.49
2022-10-06T02:13:32.646Z,94.11
2022-10-06T02:14:32.098Z,94.35
2022-10-06T02:15:33.056Z,94.19
2022-10-06T02:16:31.224Z,94.09
2022-10-06T02:17:29.205Z,94.27
2022-10-06T02:18:26.350Z,93.78
2022-10-06T02:19:23.277Z,93.88
2022-10-06T02:20:20.408Z,93.96
2022-10-06T02:21:19.574Z,93.97
2022-10-06T02:22:16.317Z,94.30
2022-10-06T02:23:13.019Z,93.94
2022-10-06T02:24:09.754Z,94.04
2022-10-06T02:25:07.557Z,93.98
2022-10-06T02:26:06.137Z,94.30
2022-10-06T02:27:02.973Z,94.61
2022-10-06T02:28:00.676Z,94.33
2022-10-06T02:28:57.281Z,94.60
2022-10-06T02:29:53.924Z,94.73
2022-10-06T02:30:50.525Z,94.89
2022-10-06T02:31:47.524Z,95.04
2022-10-06T02:32:44.269Z,94.87
2022-10-06T02:33:41.505Z,94.32
2022-10-06T02:34:38.419Z,94.76
2022-10-06T02:35:35.003Z,94.57
2022-10-06T02:36:31.594Z,94.38
2022-10-06T02:37:28.194Z,93.94
2022-10-06T02:38:25.573Z,94.21
2022-10-06T02:39:22.584Z,93.44
2022-10-06T02:40:19.238Z,93.24
2022-10-06T02:41:15.998Z,92.66
2022-10-06T02:42:12.688Z,92.34
2022-10-06T02:43:09.248Z,92.23
2022-10-06T02:44:05.945Z,92.01
2022-10-06T02:45:03.229Z,92.48
2022-10-06T02:46:02.811Z,92.68
2022-10-06T02:46:59.632Z,92.59
2022-10-06T02:47:56.212Z,93.54
2022-10-06T02:48:53.923Z,93.75
2022-10-06T02:49:51.097Z,93.96
2022-10-06T02:51:04.657Z,94.29
2022-10-06T02:52:01.216Z,94.24
2022-10-06T02:52:57.890Z,94.20
2022-10-06T02:53:54.548Z,94.52
2022-10-06T02:54:52.110Z,94.56
2022-10-06T02:55:48.675Z,95.14
2022-10-06T02:56:45.523Z,95.38
2022-10-06T02:57:42.194Z,95.15
2022-10-06T02:58:43.040Z,95.54
2022-10-06T02:59:39.647Z,95.50
2022-10-06T03:00:36.221Z,96.06
2022-10-06T03:01:32.886Z,95.91
2022-10-06T03:02:32.437Z,95.76
2022-10-06T03:03:29.600Z,96.03
2022-10-06T03:04:26.526Z,95.65
2022-10-06T03:05:23.215Z,95.69
2022-10-06T03:06:22.402Z,95.88
2022-10-06T03:07:19.001Z,96.10
2022-10-06T03:08:18.258Z,95.80
2022-10-06T03:09:15.155Z,95.66
2022-10-06T03:10:11.888Z,95.53
2022-10-06T03:11:08.425Z,95.97
2022-10-06T03:12:05.086Z,95.58
2022-10-06T03:13:01.815Z,95.95
2022-10-06T03:13:58.626Z,96.07
2022-10-06T03:14:55.236Z,96.20
2022-10-06T03:15:51.839Z,95.84
2022-10-06T03:16:50.292Z,95.82
2022-10-06T03:17:50.354Z,96.43
2022-10-06T03:18:49.966Z,96.33
2022-10-06T03:19:46.513Z,96.07
2022-10-06T03:20:43.183Z,96.66
2022-10-06T03:21:42.411Z,96.43
2022-10-06T03:22:38.974Z,95.93
2022-10-06T03:23:35.813Z,96.34
2022-10-06T03:24:32.767Z,96.25
2022-10-06T03:25:29.391Z,96.55
2022-10-06T03:26:29.460Z,95.87
2022-10-06T03:27:26.114Z,96.10
2022-10-06T03:28:22.754Z,95.85
2022-10-06T03:29:19.448Z,96.01
2022-10-06T03:30:19.049Z,95.65
2022-10-06T03:31:16.381Z,95.76
2022-10-06T03:32:12.987Z,95.55
2022-10-06T03:33:09.533Z,95.55
2022-10-06T03:34:06.555Z,95.75
2022-10-06T03:35:03.360Z,95.60
2022-10-06T03:36:07.138Z,95.62
2022-10-06T03:37:03.702Z,95.45
2022-10-06T03:38:00.326Z,95.70
2022-10-06T03:38:56.917Z,95.35
2022-10-06T03:39:53.552Z,95.35
2022-10-06T03:40:50.111Z,95.12
2022-10-06T03:41:46.689Z,95.37
2022-10-06T03:42:43.233Z,95.66
2022-10-06T03:43:42.415Z,95.83
2022-10-06T03:44:39.066Z,95.51
2022-10-06T03:45:35.627Z,95.59
2022-10-06T03:46:34.743Z,95.04
2022-10-06T03:47:31.440Z,95.19
2022-10-06T03:48:30.051Z,95.47
2022-10-06T03:49:26.751Z,95.34
2022-10-06T03:50:23.423Z,95.69
2022-10-06T03:51:27.231Z,95.55
2022-10-06T03:52:26.131Z,95.38
2022-10-06T03:53:25.797Z,95.51
2022-10-06T03:54:22.363Z,95.18
2022-10-06T03:55:18.920Z,95.62
2022-10-06T03:56:17.018Z,95.19
2022-10-06T03:57:13.884Z,95.54
2022-10-06T03:58:10.437Z,95.54
2022-10-06T03:59:12.326Z,95.49
2022-10-06T04:00:09.573Z,95.74
2022-10-06T04:01:10.091Z,95.35
2022-10-06T04:02:06.839Z,95.60
2022-10-06T04:03:03.433Z,95.46
2022-10-06T04:04:01.298Z,95.62
2022-10-06T04:04:57.858Z,95.24
2022-10-06T04:05:56.736Z,95.97
2022-10-06T04:06:53.340Z,95.91
2022-10-06T04:07:49.894Z,95.47
2022-10-06T04:08:48.363Z,95.26
2022-10-06T04:09:44.919Z,95.23
2022-10-06T04:10:41.694Z,95.04
2022-10-06T04:11:40.099Z,94.90
2022-10-06T04:12:36.654Z,95.43
2022-10-06T04:13:33.609Z,95.21
2022-10-06T04:14:30.177Z,95.22
2022-10-06T04:15:26.724Z,95.35
2022-10-06T04:16:25.974Z,95.75
2022-10-06T04:17:22.586Z,95.58
2022-10-06T04:18:19.129Z,96.14
2022-10-06T04:19:17.318Z,95.87
2022-10-06T04:20:13.933Z,95.56
2022-10-06T04:21:12.210Z,96.21
2022-10-06T04:22:08.876Z,95.92
2022-10-06T04:23:06.195Z,96.30
2022-10-06T04:24:03.639Z,95.75
2022-10-06T04:25:00.188Z,96.48
2022-10-06T04:26:06.445Z,96.00
2022-10-06T04:27:21.643Z,95.95
2022-10-06T04:28:18.291Z,96.38
2022-10-06T04:29:15.195Z,95.71
2022-10-06T04:30:12.619Z,95.73
2022-10-06T04:31:26.560Z,95.93
2022-10-06T04:32:23.153Z,96.09
2022-10-06T04:33:19.919Z,95.52
2022-10-06T04:34:16.672Z,95.54
2022-10-06T04:35:13.514Z,96.01
2022-10-06T04:36:13.730Z,95.76
2022-10-06T04:37:10.793Z,96.28
2022-10-06T04:38:07.491Z,96.31
2022-10-06T04:39:05.187Z,96.46
2022-10-06T04:40:01.801Z,96.12
2022-10-06T04:41:05.344Z,96.36
2022-10-06T04:42:03.029Z,96.74
2022-10-06T04:42:59.598Z,96.35
2022-10-06T04:43:56.540Z,96.94
2022-10-06T04:44:53.075Z,96.84
2022-10-06T04:45:57.644Z,96.46
2022-10-06T04:46:54.431Z,96.74
2022-10-06T04:47:51.192Z,96.70
2022-10-06T04:48:50.492Z,96.83
2022-10-06T04:49:47.122Z,96.58
2022-10-06T04:50:43.714Z,96.68
2022-10-06T04:51:40.255Z,96.73
2022-10-06T04:52:36.781Z,97.17
2022-10-06T04:53:33.988Z,96.98
2022-10-06T04:54:33.684Z,96.70
2022-10-06T04:55:30.626Z,97.01
2022-10-06T04:56:29.802Z,96.42
2022-10-06T04:57:26.401Z,96.68
2022-10-06T04:58:23.018Z,96.65
2022-10-06T04:59:19.583Z,96.86
2022-10-06T05:00:26.758Z,97.05
2022-10-06T05:01:32.120Z,97.08
2022-10-06T05:02:29.381Z,97.14
2022-10-06T05:03:29.112Z,96.34
2022-10-06T05:04:25.647Z,96.72
2022-10-06T05:05:22.381Z,96.18
2022-10-06T05:06:24.387Z,96.30
2022-10-06T05:07:20.996Z,96.54
2022-10-06T05:08:17.658Z,96.58
2022-10-06T05:09:15.942Z,96.44
2022-10-06T05:10:12.651Z,96.15
2022-10-06T05:11:16.562Z,96.49
2022-10-06T05:12:14.407Z,95.84
2022-10-06T05:13:12.617Z,95.69
2022-10-06T05:14:09.200Z,95.65
2022-10-06T05:15:06.368Z,96.00
2022-10-06T05:16:04.409Z,95.84
2022-10-06T05:17:01.068Z,95.31
2022-10-06T05:17:57.710Z,95.47
2022-10-06T05:18:54.461Z,95.04
2022-10-06T05:19:51.039Z,95.09
2022-10-06T05:21:01.084Z,94.56
2022-10-06T05:22:01.048Z,93.94
2022-10-06T05:22:57.634Z,93.79
2022-10-06T05:23:54.271Z,93.24
2022-10-06T05:24:53.746Z,92.91
2022-10-06T05:25:54.962Z,92.56
2022-10-06T05:26:51.544Z,91.81
2022-10-06T05:27:48.137Z,91.88
2022-10-06T05:28:45.079Z,91.48
2022-10-06T05:29:42.050Z,91.11
2022-10-06T05:30:38.649Z,90.61
2022-10-06T05:31:41.251Z,89.72
2022-10-06T05:32:37.882Z,89.29
2022-10-06T05:33:35.992Z,89.24
2022-10-06T05:34:32.594Z,89.52
2022-10-06T05:35:29.183Z,89.44
2022-10-06T05:36:29.728Z,89.21
2022-10-06T05:37:26.383Z,88.57
2022-10-06T05:38:23.158Z,88.16
2022-10-06T05:39:19.772Z,88.19
2022-10-06T05:40:16.971Z,88.76
2022-10-06T05:41:22.614Z,88.64
2022-10-06T05:42:19.487Z,88.26
2022-10-06T05:43:17.522Z,87.65
2022-10-06T05:44:14.363Z,87.28
2022-10-06T05:45:11.159Z,87.56
2022-10-06T05:46:17.701Z,87.20
2022-10-06T05:47:14.363Z,86.71
2022-10-06T05:48:11.264Z,86.35
2022-10-06T05:49:10.260Z,86.01
2022-10-06T05:50:07.277Z,85.43
2022-10-06T05:51:07.201Z,84.99
2022-10-06T05:52:03.796Z,84.86
2022-10-06T05:53:00.478Z,85.02
2022-10-06T05:53:57.657Z,85.20
2022-10-06T05:54:54.729Z,85.20
2022-10-06T05:55:51.392Z,85.32
2022-10-06T05:56:48.059Z,85.19
2022-10-06T05:57:44.608Z,84.75
2022-10-06T05:58:43.434Z,84.42
2022-10-06T05:59:40.130Z,84.50
2022-10-06T06:00:36.762Z,84.49
2022-10-06T06:01:40.077Z,84.51
2022-10-06T06:02:36.905Z,83.98
2022-10-06T06:03:33.623Z,83.74
2022-10-06T06:04:30.215Z,83.65
2022-10-06T06:05:26.770Z,83.55
2022-10-06T06:06:33.957Z,83.66
2022-10-06T06:07:31.098Z,82.96
2022-10-06T06:08:28.742Z,82.29
2022-10-06T06:09:26.441Z,82.53
2022-10-06T06:10:23.030Z,82.07
2022-10-06T06:11:25.213Z,81.65
2022-10-06T06:12:21.796Z,81.02
2022-10-06T06:13:24.290Z,80.96
2022-10-06T06:14:44.429Z,81.77
2022-10-06T06:15:59.391Z,81.39
2022-10-06T06:16:55.996Z,81.50
2022-10-06T06:17:52.635Z,81.76
2022-10-06T06:18:49.354Z,82.19
2022-10-06T06:19:45.952Z,81.63
2022-10-06T06:20:42.522Z,82.25
2022-10-06T06:21:39.144Z,81.47
2022-10-06T06:22:35.961Z,81.10
2022-10-06T06:23:34.904Z,81.00
2022-10-06T06:24:31.452Z,80.59
2022-10-06T06:25:28.056Z,80.02
2022-10-06T06:26:32.948Z,80.93
2022-10-06T06:27:29.624Z,81.40
2022-10-06T06:28:29.325Z,81.84
2022-10-06T06:29:26.144Z,81.38
2022-10-06T06:30:22.849Z,80.36
2022-10-06T06:31:26.751Z,80.66
2022-10-06T06:32:23.502Z,80.47
2022-10-06T06:33:20.688Z,79.97
2022-10-06T06:34:17.275Z,80.02
2022-10-06T06:35:13.899Z,79.88
2022-10-06T06:36:27.367Z,78.81
2022-10-06T06:37:23.957Z,79.94
2022-10-06T06:38:20.614Z,79.91
2022-10-06T06:39:19.678Z,79.53
2022-10-06T06:40:16.283Z,79.48
2022-10-06T06:41:17.727Z,79.31
2022-10-06T06:42:14.351Z,78.44
2022-10-06T06:43:13.998Z,78.64
2022-10-06T06:44:14.047Z,78.47
2022-10-06T06:45:10.783Z,77.73
2022-10-06T06:46:07.512Z,77.82
2022-10-06T06:47:04.220Z,78.24
2022-10-06T06:48:03.381Z,78.49
2022-10-06T06:49:04.417Z,79.12
2022-10-06T06:50:02.752Z,78.38
2022-10-06T06:50:59.397Z,77.61
2022-10-06T06:51:55.980Z,77.95
2022-10-06T06:52:54.480Z,78.33
2022-10-06T06:53:52.779Z,77.88
2022-10-06T06:54:50.016Z,77.90
2022-10-06T06:55:51.019Z,77.27
2022-10-06T06:56:48.881Z,77.08
2022-10-06T06:57:46.528Z,76.92
2022-10-06T06:58:50.214Z,76.42
2022-10-06T06:59:46.830Z,76.19
2022-10-06T07:00:43.680Z,75.99
2022-10-06T07:01:47.351Z,76.12
2022-10-06T07:02:44.123Z,75.10
2022-10-06T07:03:57.454Z,75.86
2022-10-06T07:04:54.445Z,75.34
2022-10-06T07:05:51.087Z,74.73
2022-10-06T07:06:53.481Z,75.29
2022-10-06T07:07:50.061Z,75.64
2022-10-06T07:08:48.329Z,75.24
2022-10-06T07:09:44.902Z,74.90
2022-10-06T07:10:45.050Z,73.31
2022-10-06T07:11:41.699Z,72.38
2022-10-06T07:12:38.266Z,72.60
2022-10-06T07:13:35.729Z,72.96
2022-10-06T07:14:32.286Z,72.88
2022-10-06T07:15:47.540Z,73.27
2022-10-06T07:17:03.630Z,73.70
2022-10-06T07:18:21.752Z,73.11
2022-10-06T07:19:38.921Z,73.38
2022-10-06T07:20:54.427Z,73.01
2022-10-06T07:22:30.070Z,72.35
2022-10-06T07:23:45.270Z,73.55
2022-10-06T07:25:01.111Z,74.88
2022-10-06T07:25:57.736Z,74.33
2022-10-06T07:26:54.336Z,73.12
2022-10-06T07:27:51.298Z,72.21
2022-10-06T07:28:49.531Z,71.74
2022-10-06T07:29:47.116Z,71.75
2022-10-06T07:30:44.908Z,71.56
2022-10-06T07:31:43.635Z,70.99
2022-10-06T07:32:40.241Z,71.23
2022-10-06T07:33:37.134Z,72.42
2022-10-06T07:34:33.775Z,72.71
2022-10-06T07:35:30.432Z,72.01
2022-10-06T07:36:26.992Z,71.57
2022-10-06T07:37:24.174Z,72.04
2022-10-06T07:38:25.805Z,71.83
2022-10-06T07:39:22.538Z,71.66
2022-10-06T07:40:19.184Z,71.00
2022-10-06T07:41:20.002Z,70.34
2022-10-06T07:42:18.318Z,69.82
2022-10-06T07:43:14.992Z,70.11
2022-10-06T07:44:11.690Z,70.16
2022-10-06T07:45:27.000Z,69.88
2022-10-06T07:46:24.336Z,68.33
2022-10-06T07:47:21.011Z,68.61
2022-10-06T07:48:20.430Z,69.08
2022-10-06T07:49:17.431Z,70.31
2022-10-06T07:50:14.071Z,70.08
2022-10-06T07:51:19.397Z,69.98
2022-10-06T07:52:16.177Z,68.66
2022-10-06T07:53:13.140Z,67.15
2022-10-06T07:54:09.783Z,67.12
2022-10-06T07:55:07.415Z,67.36
2022-10-06T07:56:06.132Z,68.60
2022-10-06T07:57:02.740Z,69.47
2022-10-06T07:57:59.470Z,69.14
2022-10-06T07:58:58.594Z,67.63
2022-10-06T07:59:59.091Z,66.59
2022-10-06T08:01:06.170Z,66.55
2022-10-06T08:02:02.905Z,67.34
2022-10-06T08:02:59.701Z,66.66
2022-10-06T08:03:56.633Z,67.64
2022-10-06T08:04:53.478Z,68.32
2022-10-06T08:05:58.270Z,68.26
2022-10-06T08:06:57.697Z,67.93
2022-10-06T08:07:55.031Z,67.51
2022-10-06T08:08:56.761Z,67.15
2022-10-06T08:09:53.470Z,66.68
2022-10-06T08:10:55.476Z,66.89
2022-10-06T08:11:53.004Z,66.21
2022-10-06T08:12:49.574Z,65.52
2022-10-06T08:13:48.267Z,65.72
2022-10-06T08:14:44.841Z,64.53
2022-10-06T08:15:41.480Z,65.58
2022-10-06T08:16:38.150Z,65.83
2022-10-06T08:17:36.652Z,66.27
2022-10-06T08:18:45.948Z,64.61
2022-10-06T08:19:43.565Z,64.31
2022-10-06T08:20:40.790Z,64.60
2022-10-06T08:21:39.641Z,64.89
2022-10-06T08:22:38.744Z,63.94
2022-10-06T08:23:39.257Z,65.48
2022-10-06T08:25:01.049Z,65.56
2022-10-06T08:25:54.345Z,65.25
2022-10-06T08:26:50.915Z,65.66
2022-10-06T08:27:52.642Z,66.09
2022-10-06T08:28:51.030Z,65.19
2022-10-06T08:29:47.603Z,65.25
2022-10-06T08:30:44.315Z,64.67
2022-10-06T08:31:40.926Z,65.03
2022-10-06T08:32:37.713Z,63.93
2022-10-06T08:33:36.001Z,62.41
2022-10-06T08:34:32.637Z,64.06
2022-10-06T08:35:31.234Z,65.05
2022-10-06T08:36:31.549Z,63.42
2022-10-06T08:37:29.099Z,64.19
2022-10-06T08:38:25.709Z,63.27
2022-10-06T08:39:22.274Z,63.17
2022-10-06T08:40:19.054Z,62.78
2022-10-06T08:41:26.647Z,62.27
2022-10-06T08:42:32.046Z,63.39
2022-10-06T08:43:30.475Z,64.13
2022-10-06T08:44:41.203Z,62.44
2022-10-06T08:45:44.168Z,62.76
2022-10-06T08:46:49.486Z,62.54
2022-10-06T08:47:59.922Z,63.14
2022-10-06T08:48:58.405Z,62.42
2022-10-06T08:49:56.169Z,62.70
2022-10-06T08:51:05.122Z,62.91
2022-10-06T08:52:17.513Z,62.16
2022-10-06T08:53:27.500Z,62.62
2022-10-06T08:54:38.636Z,61.89
2022-10-06T08:56:01.312Z,62.02
2022-10-06T08:57:12.175Z,62.41
2022-10-06T08:58:31.697Z,60.60
2022-10-06T08:59:34.133Z,61.88
2022-10-06T09:00:33.235Z,62.33
2022-10-06T09:01:47.862Z,61.76
2022-10-06T09:02:47.802Z,61.52
2022-10-06T09:03:51.497Z,61.42
2022-10-06T09:04:49.669Z,61.80
2022-10-06T09:05:46.487Z,62.02
2022-10-06T09:07:09.186Z,59.87
2022-10-06T09:08:34.198Z,59.61
2022-10-06T09:09:55.125Z,59.82
2022-10-06T09:11:10.725Z,60.65
2022-10-06T09:12:36.543Z,59.02
2022-10-06T09:13:45.479Z,59.48
2022-10-06T09:14:56.673Z,59.43
2022-10-06T09:15:53.241Z,60.81
2022-10-06T09:17:03.983Z,58.24
2022-10-06T09:18:13.462Z,59.68
2022-10-06T09:19:09.980Z,60.28
2022-10-06T09:20:59.373Z,57.91
2022-10-06T09:21:57.206Z,57.59
2022-10-06T09:22:56.555Z,59.08
2022-10-06T09:23:57.044Z,58.21
2022-10-06T09:24:59.105Z,58.36
2022-10-06T09:25:58.480Z,58.12
2022-10-06T09:26:58.475Z,57.82
2022-10-06T09:27:57.233Z,57.60
2022-10-06T09:28:55.166Z,56.18
2022-10-06T09:29:52.295Z,57.30
2022-10-06T09:30:53.142Z,57.98
2022-10-06T09:31:51.862Z,57.23
2022-10-06T09:32:57.718Z,56.68
2022-10-06T09:34:20.346Z,56.79
2022-10-06T09:35:20.921Z,55.78
2022-10-06T09:36:17.564Z,55.01
2022-10-06T09:37:14.315Z,57.31
2022-10-06T09:38:11.722Z,56.95
2022-10-06T09:39:22.396Z,58.40
2022-10-06T09:40:36.539Z,56.87
2022-10-06T09:41:44.503Z,58.66
2022-10-06T09:42:44.628Z,58.33
2022-10-06T09:43:52.412Z,58.59
2022-10-06T09:45:00.105Z,56.96
2022-10-06T09:46:21.291Z,57.12
2022-10-06T09:47:34.906Z,57.79
2022-10-06T09:48:31.511Z,56.72
2022-10-06T09:49:31.585Z,58.73
2022-10-06T09:50:28.581Z,55.79
2022-10-06T09:51:26.112Z,55.22
2022-10-06T09:52:22.700Z,55.69
2022-10-06T09:53:20.848Z,55.60
2022-10-06T09:54:17.412Z,54.02
2022-10-06T09:55:20.003Z,55.10
2022-10-06T09:56:19.463Z,55.15
2022-10-06T09:57:22.604Z,55.39
2022-10-06T09:58:39.206Z,56.35
2022-10-06T09:59:41.351Z,54.73
2022-10-06T10:00:46.855Z,53.72
2022-10-06T10:01:51.810Z,53.75
2022-10-06T10:02:55.453Z,53.22
2022-10-06T10:04:19.283Z,53.52
2022-10-06T10:05:22.512Z,53.41
2022-10-06T10:06:34.843Z,53.48
2022-10-06T10:07:31.615Z,52.53
2022-10-06T10:08:32.583Z,53.58
2022-10-06T10:09:29.992Z,52.20
2022-10-06T10:10:26.554Z,54.10
2022-10-06T10:11:41.990Z,54.13
2022-10-06T10:12:50.013Z,52.99
2022-10-06T10:13:47.384Z,54.23
2022-10-06T10:14:44.004Z,54.30
2022-10-06T10:15:54.275Z,52.05
2022-10-06T10:16:53.338Z,52.29
2022-10-06T10:17:51.972Z,52.45
2022-10-06T10:18:50.902Z,52.96
2022-10-06T10:19:54.552Z,52.48
2022-10-06T10:20:55.920Z,54.79
2022-10-06T10:21:56.395Z,54.40
2022-10-06T10:22:54.136Z,53.41
2022-10-06T10:23:59.350Z,53.63
2022-10-06T10:25:22.342Z,53.59
2022-10-06T10:26:40.470Z,53.67
2022-10-06T10:27:53.226Z,52.88
2022-10-06T10:29:20.926Z,51.72
2022-10-06T10:30:18.016Z,51.87
2022-10-06T10:31:39.196Z,52.76
2022-10-06T10:32:38.596Z,51.53
2022-10-06T10:34:23.957Z,51.97
2022-10-06T10:35:46.468Z,52.48
2022-10-06T10:36:51.653Z,50.67
2022-10-06T10:38:14.786Z,52.08
2022-10-06T10:39:19.367Z,51.16
2022-10-06T10:40:21.491Z,51.30
2022-10-06T10:41:28.217Z,50.94
2022-10-06T10:42:35.188Z,50.72
2022-10-06T10:43:36.173Z,50.91
2022-10-06T10:44:37.887Z,50.49
2022-10-06T10:45:39.928Z,51.63
2022-10-06T10:46:52.036Z,50.51
2022-10-06T10:47:49.555Z,50.15
2022-10-06T10:48:51.801Z,49.69
2022-10-06T10:50:00.180Z,48.77
2022-10-06T10:51:06.052Z,49.24
2022-10-06T10:52:22.839Z,50.82
2022-10-06T10:53:40.273Z,49.81
2022-10-06T10:54:44.992Z,49.62
2022-10-06T10:55:44.530Z,48.69
2022-10-06T10:56:44.028Z,50.84
2022-10-06T10:57:43.391Z,50.31
2022-10-06T10:58:42.312Z,48.63
2022-10-06T10:59:53.789Z,49.48
2022-10-06T11:00:56.583Z,47.60
2022-10-06T11:01:55.695Z,47.76
2022-10-06T11:02:55.107Z,48.05
2022-10-06T11:03:58.661Z,47.81
2022-10-06T11:05:05.522Z,49.63
2022-10-06T11:06:11.276Z,48.95
2022-10-06T11:07:26.451Z,46.63
2022-10-06T11:08:38.019Z,47.57
2022-10-06T11:09:46.602Z,48.39
2022-10-06T11:10:58.217Z,47.71
2022-10-06T11:12:11.841Z,48.24
2022-10-06T11:13:16.232Z,48.48
2022-10-06T11:14:41.298Z,48.18
2022-10-06T11:15:55.001Z,48.48
2022-10-06T11:17:04.124Z,47.89
2022-10-06T11:18:15.383Z,47.24
2022-10-06T11:19:42.614Z,48.60
2022-10-06T11:20:48.774Z,47.00
2022-10-06T11:22:23.021Z,47.33
2022-10-06T11:23:40.631Z,47.52
2022-10-06T11:24:52.216Z,47.60
2022-10-06T11:26:04.990Z,47.49
2022-10-06T11:27:30.146Z,46.93
2022-10-06T11:28:39.384Z,48.11
2022-10-06T11:29:57.655Z,48.08
2022-10-06T11:30:54.376Z,47.31
2022-10-06T11:31:56.978Z,47.04
2022-10-06T11:33:07.183Z,47.60
2022-10-06T11:34:06.630Z,46.50
2022-10-06T11:35:22.353Z,46.97
2022-10-06T11:36:34.927Z,46.55
2022-10-06T11:37:47.711Z,47.23
2022-10-06T11:38:57.645Z,47.33
2022-10-06T11:40:24.681Z,44.40
2022-10-06T11:41:25.847Z,46.12
2022-10-06T11:42:47.594Z,47.77
2022-10-06T11:44:00.549Z,45.31
2022-10-06T11:45:00.126Z,46.34
2022-10-06T11:46:44.783Z,44.34
2022-10-06T11:48:19.001Z,46.81
2022-10-06T11:49:30.825Z,46.24
2022-10-06T11:50:36.790Z,44.99
2022-10-06T11:51:33.394Z,45.03
2022-10-06T11:52:29.982Z,45.77
2022-10-06T11:53:32.361Z,45.10
2022-10-06T11:54:37.981Z,44.94
2022-10-06T11:55:34.873Z,46.07
2022-10-06T11:56:37.091Z,44.43
2022-10-06T11:57:35.248Z,44.68
2022-10-06T11:58:54.641Z,43.62
2022-10-06T12:00:14.926Z,44.01
2022-10-06T12:01:31.488Z,42.66
2022-10-06T12:02:42.062Z,43.30
2022-10-06T12:03:47.193Z,44.04
2022-10-06T12:05:28.576Z,44.58
2022-10-06T12:06:47.488Z,44.26
2022-10-06T12:07:56.244Z,43.56
2022-10-06T12:08:52.783Z,44.80
2022-10-06T12:09:52.356Z,44.79
2022-10-06T12:10:50.557Z,43.93
2022-10-06T12:11:47.704Z,43.47
2022-10-06T12:12:57.343Z,42.68
2022-10-06T12:18:16.587Z,42.51
2022-10-06T12:19:19.486Z,43.69
2022-10-06T12:20:21.111Z,42.18
2022-10-06T12:21:45.000Z,40.97
2022-10-06T12:22:50.899Z,41.37
2022-10-06T12:24:06.398Z,42.40
2022-10-06T12:25:03.247Z,42.20
2022-10-06T12:26:12.635Z,43.99
2022-10-06T12:27:32.334Z,44.05
2022-10-06T12:28:51.449Z,42.88
2022-10-06T12:30:00.683Z,42.42
2022-10-06T12:31:25.577Z,42.30
2022-10-06T12:32:36.760Z,41.97
2022-10-06T12:33:41.720Z,42.66
2022-10-06T12:34:56.798Z,42.81
2022-10-06T12:36:02.987Z,42.97
2022-10-06T12:37:32.856Z,42.33
2022-10-06T12:38:33.088Z,42.86
2022-10-06T12:39:29.710Z,42.07
2022-10-06T12:40:49.073Z,42.54
2022-10-06T12:41:54.908Z,42.17
2022-10-06T12:42:51.492Z,42.09
2022-10-06T12:43:56.016Z,41.31
2022-10-06T12:44:53.410Z,40.68
2022-10-06T12:45:56.032Z,40.91
2022-10-06T12:46:54.868Z,40.15
2022-10-06T12:47:51.658Z,40.38
2022-10-06T12:48:55.757Z,41.31
2022-10-06T12:49:56.690Z,40.95
2022-10-06T12:51:02.997Z,41.42
2022-10-06T12:52:08.349Z,41.95
2022-10-06T12:53:14.791Z,42.25
2022-10-06T12:54:35.699Z,40.00
2022-10-06T12:55:43.762Z,41.98
2022-10-06T12:56:42.950Z,40.65
2022-10-06T12:57:48.426Z,41.41
2022-10-06T12:58:44.989Z,42.94
2022-10-06T12:59:41.907Z,41.36
2022-10-06T13:00:41.146Z,41.02
2022-10-06T13:01:38.315Z,41.05
2022-10-06T13:02:35.148Z,41.88
2022-10-06T13:03:31.956Z,42.19
2022-10-06T13:04:34.682Z,42.02
2022-10-06T13:05:33.054Z,42.15
2022-10-06T13:06:30.972Z,41.77
2022-10-06T13:07:29.453Z,43.08
2022-10-06T13:08:29.693Z,42.93
2022-10-06T13:09:26.338Z,42.21
2022-10-06T13:10:23.498Z,42.09
2022-10-06T13:11:25.402Z,42.11
2022-10-06T13:12:24.921Z,39.59
2022-10-06T13:13:24.423Z,40.20